Groveland, MA

10:28 AM EST on December 29, 2014 (GMT -0500)
Bradford MA | Change Station
CLOSE
Current Station
Personal Weather Station
Location: Bradford MA, MA
Elevation: 167 ft
Nearby Weather Stations

Elev 167 ft 42.75 °N, 71.06 °W | Updated 3 seconds ago

Clear
Clear
38.5 °F
Feels Like 38 °F
N
3.0
Wind Variable Wind from NW
Gusts 14.0 mph

Today
High -- | Low -- °F
--% Chance of Precip.
Yesterday
High -- | Low -- °F
Precip. -- in
7:14 AM 4:18 PM
First Quarter, 60% visible
Pressure 30.14 in
Visibility 10.0 miles
Clouds Clear
Windchill 38 °F
Dew Point 22 °F
Humidity 52%
Rainfall 0.00 in
Snow Depth Not available.
UV 1 out of 12
Pollen .10 out of 12
Air Quality Not available.
Flu Activity Not available.
METAR KLWM 291454Z 24008KT 10SM CLR 03/M04 A3013 RMK AO2 SLP205 T00281044 53008

More Conditions Fewer Conditions

Pressure 30.14 in
Visibility 10.0 miles
Clouds Clear
Windchill 38 °F
Dew Point 22 °F
Humidity 52%
Rainfall 0.00 in
Snow Depth Not available.
UV 1 out of 12
Pollen .10 out of 12
Air Quality Not available.
Flu Activity Not available.
METAR KLWM 291454Z 24008KT 10SM CLR 03/M04 A3013 RMK AO2 SLP205 T00281044 53008

More Conditions Fewer Conditions

10-Day Weather Forecast

Almanac

Astronomy

Dec. 29, 2014 Rise Set
Actual Time
Civil Twilight
Nautical Twilight
Astronomical Twilight
Moon
Length of Visible Light
Length of Day
Tomorrow will be .
, % of the Moon is Illuminated

Today's Extremes

State Highs State Lows

Community

WunderPhotos

Upload Photos

1,781,604 photos uploaded!

WunderBlogs® & News

Nearby

Air Quality

  Air Quality AQ Index Pollutant
Not available.

Snow Depth

Station Depth Elevation

Earthquake Activity

City Distance Mag. Time & Date
Minimum magnitude displayed is 2.5.

Coastal Water Temperatures

Place Temperature

Nearby Weather Stations